createdAt,value
2017-09-16T00:00:50.248Z,83.60
2017-09-16T00:03:16.446Z,84.30
2017-09-16T00:05:43.204Z,83.50
2017-09-16T00:08:10.054Z,82.40
2017-09-16T00:10:36.303Z,82.90
2017-09-16T00:13:03.107Z,83.00
2017-09-16T00:15:29.312Z,83.20
2017-09-16T00:17:57.136Z,83.60
2017-09-16T00:20:23.331Z,83.60
2017-09-16T00:22:50.691Z,83.40
2017-09-16T00:25:16.912Z,82.80
2017-09-16T00:27:44.287Z,83.00
2017-09-16T00:30:10.504Z,83.20
2017-09-16T00:32:37.763Z,83.40
2017-09-16T00:35:04.711Z,86.10
2017-09-16T00:37:31.680Z,85.20
2017-09-16T00:39:58.583Z,85.30
2017-09-16T00:42:25.295Z,87.50
2017-09-16T00:44:51.512Z,87.70
2017-09-16T00:47:17.732Z,86.50
2017-09-16T00:49:44.732Z,87.00
2017-09-16T00:52:10.971Z,87.20
2017-09-16T00:54:37.644Z,87.10
2017-09-16T00:57:04.596Z,87.00
2017-09-16T00:59:32.664Z,88.20
2017-09-16T01:01:58.887Z,88.20
2017-09-16T01:04:25.872Z,88.90
2017-09-16T01:06:52.847Z,87.90
2017-09-16T01:09:19.516Z,88.00
2017-09-16T01:11:46.144Z,87.90
2017-09-16T01:14:12.367Z,87.70
2017-09-16T01:16:39.037Z,86.60
2017-09-16T01:25:52.744Z,87.30
2017-09-16T01:28:20.423Z,86.40
2017-09-16T01:30:46.668Z,86.50
2017-09-16T01:33:12.908Z,87.50
2017-09-16T01:35:39.151Z,88.80
2017-09-16T01:38:05.501Z,86.50
2017-09-16T01:40:33.044Z,85.70
2017-09-16T01:42:59.800Z,85.70
2017-09-16T01:45:27.235Z,86.30
2017-09-16T01:47:53.436Z,86.30
2017-09-16T01:50:19.644Z,86.20
2017-09-16T01:52:46.580Z,86.70
2017-09-16T01:55:12.792Z,86.70
2017-09-16T01:57:39.067Z,86.90
2017-09-16T02:00:06.075Z,86.00
2017-09-16T02:02:32.295Z,86.10
2017-09-16T02:04:58.512Z,86.50
2017-09-16T02:07:25.396Z,86.70
2017-09-16T02:09:52.187Z,87.00
2017-09-16T02:12:19.146Z,87.10
2017-09-16T02:14:45.980Z,87.20
2017-09-16T02:17:13.973Z,86.80
2017-09-16T02:19:40.668Z,86.80
2017-09-16T02:22:06.870Z,87.00
2017-09-16T02:24:33.075Z,87.40
2017-09-16T02:27:00.364Z,86.20
2017-09-16T02:29:26.566Z,86.40
2017-09-16T02:31:53.525Z,87.20
2017-09-16T02:34:19.781Z,87.30
2017-09-16T02:36:46.435Z,86.60
2017-09-16T02:39:12.680Z,86.20
2017-09-16T02:41:40.142Z,86.40
2017-09-16T02:44:06.364Z,87.00
2017-09-16T02:46:32.555Z,86.70
2017-09-16T02:48:59.504Z,87.40
2017-09-16T02:51:26.440Z,87.20
2017-09-16T02:53:54.203Z,87.40
2017-09-16T02:56:20.412Z,87.10
2017-09-16T02:58:46.622Z,86.50
2017-09-16T03:01:12.871Z,88.10
2017-09-16T03:03:39.055Z,86.30
2017-09-16T03:06:07.828Z,87.30
2017-09-16T03:08:34.443Z,87.40
2017-09-16T03:11:01.907Z,87.30
2017-09-16T03:13:28.101Z,86.80
2017-09-16T03:15:54.658Z,86.40
2017-09-16T03:18:20.875Z,86.30
2017-09-16T03:20:47.122Z,86.70
2017-09-16T03:23:14.047Z,86.90
2017-09-16T03:25:41.867Z,86.70
2017-09-16T03:28:09.211Z,86.70
2017-09-16T03:30:35.433Z,87.40
2017-09-16T03:33:01.623Z,86.80
2017-09-16T03:35:27.867Z,86.70
2017-09-16T03:37:54.804Z,86.40
2017-09-16T03:40:21.603Z,86.40
2017-09-16T03:42:48.579Z,86.60
2017-09-16T03:45:14.784Z,86.60
2017-09-16T03:47:40.979Z,86.60
2017-09-16T03:50:08.023Z,87.20
2017-09-16T03:52:34.262Z,87.30
2017-09-16T03:55:00.555Z,86.70
2017-09-16T03:57:27.315Z,86.50
2017-09-16T03:59:55.298Z,87.60
2017-09-16T04:02:33.931Z,87.90
2017-09-16T04:05:01.331Z,87.10
2017-09-16T04:07:28.605Z,86.30
2017-09-16T04:09:55.246Z,86.90
2017-09-16T04:12:22.936Z,86.30
2017-09-16T04:14:49.130Z,85.90
2017-09-16T04:17:15.864Z,86.30
2017-09-16T04:19:42.811Z,86.90
2017-09-16T04:22:09.763Z,87.10
2017-09-16T04:24:36.712Z,87.30
2017-09-16T04:27:05.140Z,87.60
2017-09-16T04:29:31.340Z,88.40
2017-09-16T04:31:57.588Z,87.50
2017-09-16T04:34:25.179Z,87.00
2017-09-16T04:36:52.827Z,87.40
2017-09-16T04:39:19.088Z,87.40
2017-09-16T04:41:46.686Z,89.00
2017-09-16T04:44:13.643Z,89.30
2017-09-16T04:46:40.667Z,89.30
2017-09-16T04:49:06.879Z,89.30
2017-09-16T04:51:33.384Z,89.30
2017-09-16T04:53:59.584Z,90.10
2017-09-16T04:56:25.871Z,89.90
2017-09-16T04:58:52.117Z,89.90
2017-09-16T05:01:18.645Z,89.50
2017-09-16T05:03:44.843Z,89.40
2017-09-16T05:06:12.980Z,89.30
2017-09-16T05:08:39.799Z,89.30
2017-09-16T05:11:06.768Z,89.90
2017-09-16T05:13:32.971Z,89.20
2017-09-16T05:15:59.156Z,89.20
2017-09-16T05:18:25.481Z,88.80
2017-09-16T05:20:51.689Z,89.00
2017-09-16T05:23:18.783Z,89.60
2017-09-16T05:25:45.047Z,89.60
2017-09-16T05:28:12.595Z,89.40
2017-09-16T05:30:39.422Z,89.40
2017-09-16T05:33:05.964Z,89.30
2017-09-16T05:35:32.179Z,89.20
2017-09-16T05:37:58.803Z,90.00
2017-09-16T05:40:26.492Z,89.10
2017-09-16T05:42:53.120Z,89.40
2017-09-16T05:45:19.323Z,89.20
2017-09-16T05:47:46.288Z,89.10
2017-09-16T05:50:12.528Z,89.10
2017-09-16T05:52:38.740Z,88.90
2017-09-16T05:55:05.776Z,88.70
2017-09-16T05:57:32.736Z,88.50
2017-09-16T06:00:01.288Z,88.20
2017-09-16T06:02:28.628Z,88.20
2017-09-16T06:04:55.472Z,88.30
2017-09-16T06:07:22.419Z,88.50
2017-09-16T06:09:49.044Z,88.90
2017-09-16T06:12:15.288Z,88.40
2017-09-16T06:14:42.316Z,88.70
2017-09-16T06:17:09.262Z,88.40
2017-09-16T06:19:36.208Z,88.60
2017-09-16T06:22:03.248Z,88.90
2017-09-16T06:24:29.447Z,88.90
2017-09-16T06:26:56.160Z,88.80
2017-09-16T06:29:22.368Z,88.20
2017-09-16T06:31:49.984Z,88.80
2017-09-16T06:34:16.184Z,88.20
2017-09-16T06:36:43.692Z,88.20
2017-09-16T06:39:09.884Z,88.10
2017-09-16T06:41:37.167Z,88.30
2017-09-16T06:44:03.404Z,88.30
2017-09-16T06:46:29.617Z,88.30
2017-09-16T06:48:56.529Z,88.50
2017-09-16T06:51:22.745Z,88.80
2017-09-16T06:53:49.372Z,88.90
2017-09-16T06:56:16.323Z,88.40
2017-09-16T06:58:42.540Z,89.10
2017-09-16T07:01:09.856Z,89.30
2017-09-16T07:03:36.808Z,89.80
2017-09-16T07:06:03.849Z,90.00
2017-09-16T07:08:31.384Z,89.50
2017-09-16T07:10:57.587Z,89.10
2017-09-16T07:13:23.840Z,89.40
2017-09-16T07:15:50.104Z,89.40
2017-09-16T07:18:16.334Z,89.20
2017-09-16T07:20:44.473Z,89.80
2017-09-16T07:23:11.444Z,89.80
2017-09-16T07:25:37.664Z,89.40
2017-09-16T07:28:04.646Z,89.60
2017-09-16T07:30:30.860Z,89.10
2017-09-16T07:32:57.080Z,89.40
2017-09-16T07:35:23.952Z,89.20
2017-09-16T07:37:50.709Z,88.90
2017-09-16T07:40:16.915Z,89.30
2017-09-16T07:42:43.572Z,89.50
2017-09-16T07:45:09.782Z,89.60
2017-09-16T07:47:36.557Z,89.80
2017-09-16T07:50:02.811Z,89.60
2017-09-16T07:52:29.020Z,89.50
2017-09-16T07:54:55.840Z,89.50
2017-09-16T07:57:22.049Z,89.60
2017-09-16T07:59:49.356Z,90.00
2017-09-16T08:02:15.579Z,90.10
2017-09-16T08:04:41.792Z,89.40
2017-09-16T08:07:09.376Z,89.50
2017-09-16T08:09:37.404Z,88.90
2017-09-16T08:12:03.611Z,88.80
2017-09-16T08:14:29.816Z,88.20
2017-09-16T08:16:56.584Z,88.60
2017-09-16T08:19:22.795Z,88.10
2017-09-16T08:21:49.020Z,88.40
2017-09-16T08:24:15.697Z,89.10
2017-09-16T08:26:42.438Z,88.90
2017-09-16T08:29:08.972Z,89.20
2017-09-16T08:31:35.180Z,88.80
2017-09-16T08:34:01.443Z,88.80
2017-09-16T08:36:28.316Z,88.20
2017-09-16T08:38:54.520Z,87.80
2017-09-16T08:41:21.684Z,88.70
2017-09-16T08:43:47.937Z,88.20
2017-09-16T08:46:14.912Z,88.20
2017-09-16T08:48:43.134Z,87.50
2017-09-16T08:51:10.688Z,87.50
2017-09-16T08:53:37.960Z,87.50
2017-09-16T08:56:05.540Z,87.30
2017-09-16T08:58:31.734Z,87.60
2017-09-16T09:00:57.947Z,87.50
2017-09-16T09:03:26.049Z,84.60
2017-09-16T09:05:52.278Z,84.50
2017-09-16T09:08:19.267Z,85.20
2017-09-16T09:10:45.492Z,85.40
2017-09-16T09:13:11.702Z,85.00
2017-09-16T09:15:39.516Z,85.50
2017-09-16T09:18:05.744Z,86.10
2017-09-16T09:20:31.940Z,85.40
2017-09-16T09:22:58.173Z,85.30
2017-09-16T09:25:25.099Z,85.20
2017-09-16T09:27:52.044Z,84.70
2017-09-16T09:30:18.976Z,85.90
2017-09-16T09:32:45.236Z,85.00
2017-09-16T09:35:12.182Z,84.70
2017-09-16T09:37:39.808Z,84.50
2017-09-16T09:40:06.620Z,84.50
2017-09-16T09:42:33.500Z,84.20
2017-09-16T09:44:59.711Z,84.30
2017-09-16T09:47:25.929Z,84.50
2017-09-16T09:49:53.128Z,83.70
2017-09-16T09:52:19.953Z,83.70
2017-09-16T09:54:47.432Z,82.50
2017-09-16T09:57:13.656Z,82.10
2017-09-16T09:59:39.868Z,83.80
2017-09-16T10:02:06.155Z,83.00
2017-09-16T10:04:33.904Z,82.90
2017-09-16T10:07:01.021Z,81.10
2017-09-16T10:09:28.732Z,80.90
2017-09-16T10:11:55.649Z,81.70
2017-09-16T10:14:21.864Z,82.70
2017-09-16T10:16:48.804Z,82.50
2017-09-16T10:19:15.773Z,81.20
2017-09-16T10:21:43.488Z,81.20
2017-09-16T10:24:09.700Z,81.60
2017-09-16T10:26:35.903Z,81.80
2017-09-16T10:29:02.141Z,81.60
2017-09-16T10:31:28.348Z,81.60
2017-09-16T10:40:41.734Z,80.70
2017-09-16T10:43:08.368Z,81.00
2017-09-16T10:45:34.964Z,80.60
2017-09-16T10:48:02.523Z,80.10
2017-09-16T10:50:28.772Z,79.90
2017-09-16T10:52:55.731Z,80.40
2017-09-16T10:55:21.956Z,80.40
2017-09-16T10:57:48.928Z,77.40
2017-09-16T11:00:15.227Z,77.40
2017-09-16T11:02:43.681Z,76.70
2017-09-16T11:05:09.882Z,76.70
2017-09-16T11:07:36.549Z,78.20
2017-09-16T11:10:03.196Z,77.80
2017-09-16T11:12:29.416Z,78.00
2017-09-16T11:14:56.384Z,77.90
2017-09-16T11:17:24.011Z,77.80
2017-09-16T11:19:51.532Z,78.10
2017-09-16T11:22:17.739Z,78.60
2017-09-16T11:24:43.956Z,77.00
2017-09-16T11:27:10.486Z,76.90
2017-09-16T11:29:36.747Z,77.30
2017-09-16T11:32:03.044Z,77.90
2017-09-16T11:34:30.139Z,78.00
2017-09-16T11:36:56.348Z,76.70
2017-09-16T11:39:23.342Z,77.60
2017-09-16T11:41:50.086Z,77.30
2017-09-16T11:44:16.816Z,77.60
2017-09-16T11:46:43.022Z,74.60
2017-09-16T11:49:10.213Z,76.80
2017-09-16T11:51:37.267Z,75.50
2017-09-16T11:54:04.415Z,73.60
2017-09-16T11:56:30.628Z,73.70
2017-09-16T11:58:56.835Z,75.20
2017-09-16T12:01:23.804Z,74.30
2017-09-16T12:03:50.027Z,74.30
2017-09-16T12:06:16.323Z,74.60
2017-09-16T12:08:43.148Z,75.30
2017-09-16T12:11:09.353Z,75.00
2017-09-16T12:13:35.616Z,74.80
2017-09-16T12:16:03.212Z,75.00
2017-09-16T12:18:29.403Z,74.90
2017-09-16T12:20:55.628Z,74.00
2017-09-16T12:23:22.813Z,74.50
2017-09-16T12:25:49.444Z,75.70
2017-09-16T12:28:15.654Z,74.90
2017-09-16T12:30:41.860Z,74.60
2017-09-16T12:33:08.822Z,73.70
2017-09-16T12:35:35.716Z,73.60
2017-09-16T12:38:01.929Z,72.00
2017-09-16T12:40:28.553Z,72.90
2017-09-16T12:42:55.544Z,74.60
2017-09-16T12:45:21.757Z,72.20
2017-09-16T12:47:47.971Z,73.60
2017-09-16T12:50:14.208Z,73.50
2017-09-16T12:52:40.475Z,72.30
2017-09-16T12:55:06.771Z,70.80
2017-09-16T12:57:34.752Z,71.80
2017-09-16T13:00:00.945Z,73.50
2017-09-16T13:02:27.180Z,74.10
2017-09-16T13:04:54.204Z,72.30
2017-09-16T13:07:21.260Z,73.80
2017-09-16T13:09:47.462Z,73.40
2017-09-16T13:12:13.665Z,74.00
2017-09-16T13:14:42.291Z,73.50
2017-09-16T13:17:11.240Z,73.50
2017-09-16T13:19:40.286Z,73.80
2017-09-16T13:22:10.816Z,73.20
2017-09-16T13:24:37.108Z,74.50
2017-09-16T13:27:04.737Z,76.00
2017-09-16T13:29:31.816Z,76.10
2017-09-16T13:32:00.171Z,73.50
2017-09-16T13:34:26.483Z,73.40
2017-09-16T13:36:53.849Z,73.40
2017-09-16T13:39:20.814Z,73.00
2017-09-16T13:41:48.380Z,73.70
2017-09-16T13:44:14.690Z,76.30
2017-09-16T13:46:41.017Z,78.20
2017-09-16T13:49:07.416Z,78.80
2017-09-16T13:51:35.197Z,78.40
2017-09-16T13:54:02.931Z,78.00
2017-09-16T13:56:29.227Z,78.00
2017-09-16T13:58:55.541Z,77.90
2017-09-16T14:01:22.676Z,77.40
2017-09-16T14:03:49.363Z,77.30
2017-09-16T14:06:16.449Z,77.00
2017-09-16T14:08:43.164Z,77.00
2017-09-16T14:11:09.512Z,77.20
2017-09-16T14:13:37.512Z,77.50
2017-09-16T14:16:05.062Z,77.30
2017-09-16T14:18:32.572Z,76.90
2017-09-16T14:21:01.427Z,77.20
2017-09-16T14:23:28.149Z,77.10
2017-09-16T14:25:54.609Z,76.80
2017-09-16T14:28:20.962Z,77.10
2017-09-16T14:30:47.494Z,76.40
2017-09-16T14:33:13.796Z,76.40
2017-09-16T14:35:40.196Z,76.00
2017-09-16T14:38:08.681Z,75.90
2017-09-16T14:40:36.124Z,76.70
2017-09-16T14:43:02.856Z,76.20
2017-09-16T14:45:29.232Z,76.40
2017-09-16T14:47:56.268Z,76.90
2017-09-16T14:50:22.606Z,76.90
2017-09-16T14:52:48.915Z,77.20
2017-09-16T14:55:15.907Z,77.10
2017-09-16T14:57:43.213Z,77.70
2017-09-16T15:00:09.971Z,77.60
2017-09-16T15:02:36.290Z,77.00
2017-09-16T15:05:03.165Z,77.40
2017-09-16T15:07:30.219Z,77.20
2017-09-16T15:09:56.959Z,77.80
2017-09-16T15:12:23.703Z,78.90
2017-09-16T15:14:50.456Z,79.60
2017-09-16T15:17:17.377Z,79.70
2017-09-16T15:19:44.028Z,79.30
2017-09-16T15:22:10.712Z,80.70
2017-09-16T15:24:37.014Z,80.40
2017-09-16T15:27:03.353Z,80.10
2017-09-16T15:29:29.908Z,80.30
2017-09-16T15:31:56.206Z,81.50
2017-09-16T15:34:23.860Z,81.00
2017-09-16T15:36:50.177Z,80.20
2017-09-16T15:39:17.244Z,81.70
2017-09-16T15:41:43.923Z,81.70
2017-09-16T15:44:11.622Z,82.10
2017-09-16T15:46:37.932Z,82.90
2017-09-16T15:49:04.233Z,81.50
2017-09-16T15:51:30.685Z,82.10
2017-09-16T15:53:58.383Z,80.90
2017-09-16T15:56:24.676Z,81.00
2017-09-16T15:58:53.108Z,81.00
2017-09-16T16:01:19.478Z,81.40
2017-09-16T16:03:46.516Z,80.70
2017-09-16T16:06:13.557Z,81.50
2017-09-16T16:08:41.894Z,81.80
2017-09-16T16:11:08.805Z,80.80
2017-09-16T16:13:36.120Z,81.30
2017-09-16T16:16:03.886Z,81.30
2017-09-16T16:18:31.043Z,81.10
2017-09-16T16:20:57.582Z,80.90
2017-09-16T16:23:24.740Z,81.20
2017-09-16T16:25:51.276Z,81.40
2017-09-16T16:28:17.803Z,82.00
2017-09-16T16:30:44.569Z,81.60
2017-09-16T16:33:12.131Z,81.70
2017-09-16T16:35:38.668Z,82.00
2017-09-16T16:38:05.830Z,81.90
2017-09-16T16:40:32.982Z,81.80
2017-09-16T16:43:00.340Z,81.80
2017-09-16T16:45:27.805Z,81.80
2017-09-16T16:47:54.345Z,82.10
2017-09-16T16:50:22.015Z,82.30
2017-09-16T16:52:49.556Z,82.00
2017-09-16T16:55:18.371Z,82.00
2017-09-16T16:57:45.012Z,81.70
2017-09-16T17:00:12.679Z,81.90
2017-09-16T17:02:39.214Z,82.10
2017-09-16T17:05:06.785Z,83.10
2017-09-16T17:07:33.940Z,83.20
2017-09-16T17:10:00.485Z,83.40
2017-09-16T17:12:27.124Z,82.80
2017-09-16T17:14:54.936Z,82.70
2017-09-16T17:17:21.435Z,82.60
2017-09-16T17:19:47.974Z,83.20
2017-09-16T17:22:16.051Z,82.50
2017-09-16T17:24:43.713Z,83.70
2017-09-16T17:27:10.256Z,83.50
2017-09-16T17:29:37.818Z,83.70
2017-09-16T17:32:04.468Z,83.80
2017-09-16T17:34:31.012Z,83.70
2017-09-16T17:36:57.653Z,84.10
2017-09-16T17:39:24.294Z,83.50
2017-09-16T17:41:51.860Z,83.20
2017-09-16T17:44:19.423Z,83.70
2017-09-16T17:46:45.963Z,83.60
2017-09-16T17:49:13.118Z,83.10
2017-09-16T17:51:41.400Z,83.20
2017-09-16T17:54:09.067Z,83.60
2017-09-16T17:56:36.734Z,83.50
2017-09-16T17:59:03.261Z,83.70
2017-09-16T18:01:29.817Z,84.10
2017-09-16T18:03:57.686Z,85.20
2017-09-16T18:06:24.228Z,83.80
2017-09-16T18:08:51.491Z,83.50
2017-09-16T18:11:19.254Z,83.20
2017-09-16T18:13:46.615Z,84.30
2017-09-16T18:16:14.659Z,85.50
2017-09-16T18:18:41.229Z,84.50
2017-09-16T18:21:08.593Z,85.10
2017-09-16T18:23:35.846Z,85.90
2017-09-16T18:26:02.493Z,86.40
2017-09-16T18:28:29.848Z,85.80
2017-09-16T18:30:57.418Z,85.90
2017-09-16T18:33:23.958Z,85.80
2017-09-16T18:35:51.527Z,86.00
2017-09-16T18:38:18.062Z,85.80
2017-09-16T18:40:45.730Z,85.30
2017-09-16T18:43:13.294Z,86.30
2017-09-16T18:45:40.756Z,85.60
2017-09-16T18:48:07.400Z,85.90
2017-09-16T18:50:35.267Z,85.90
2017-09-16T18:53:02.830Z,86.40
2017-09-16T18:55:30.299Z,87.00
2017-09-16T18:57:58.273Z,86.70
2017-09-16T19:00:25.118Z,85.60
2017-09-16T19:02:51.662Z,86.20
2017-09-16T19:05:19.220Z,85.10
2017-09-16T19:07:46.888Z,85.80
2017-09-16T19:10:13.839Z,85.60
2017-09-16T19:12:40.381Z,86.50
2017-09-16T19:15:07.548Z,86.60
2017-09-16T19:17:34.082Z,86.80
2017-09-16T19:20:01.442Z,87.60
2017-09-16T19:22:28.798Z,87.60
2017-09-16T19:24:55.836Z,88.40
2017-09-16T19:27:23.416Z,88.30
2017-09-16T19:29:50.059Z,87.00
2017-09-16T19:32:18.444Z,86.90
2017-09-16T19:34:45.190Z,86.20
2017-09-16T19:37:12.547Z,87.00
2017-09-16T19:39:39.191Z,85.50
2017-09-16T19:42:06.852Z,85.80
2017-09-16T19:44:34.631Z,85.70
2017-09-16T19:47:01.472Z,86.40
2017-09-16T19:49:28.830Z,86.90
2017-09-16T19:51:56.428Z,87.80
2017-09-16T19:54:24.782Z,87.80
2017-09-16T19:56:52.740Z,87.60
2017-09-16T19:59:19.402Z,86.80
2017-09-16T20:01:45.945Z,87.70
2017-09-16T20:04:12.687Z,87.60
2017-09-16T20:06:39.432Z,87.00
2017-09-16T20:09:06.792Z,86.90
2017-09-16T20:11:34.254Z,86.70
2017-09-16T20:14:00.902Z,86.40
2017-09-16T20:16:28.259Z,86.60
2017-09-16T20:18:55.616Z,86.80
2017-09-16T20:21:22.157Z,86.40
2017-09-16T20:23:49.722Z,86.40
2017-09-16T20:26:17.392Z,86.70
2017-09-16T20:28:43.932Z,87.10
2017-09-16T20:31:10.574Z,87.60
2017-09-16T20:33:38.342Z,87.60
2017-09-16T20:36:04.884Z,88.30
2017-09-16T20:38:31.416Z,87.10
2017-09-16T20:40:58.581Z,87.20
2017-09-16T20:43:25.940Z,87.70
2017-09-16T20:45:53.300Z,87.80
2017-09-16T20:48:20.555Z,87.70
2017-09-16T20:50:47.102Z,88.30
2017-09-16T20:53:14.560Z,88.70
2017-09-16T20:55:41.920Z,89.10
2017-09-16T20:58:09.179Z,88.80
2017-09-16T21:00:35.718Z,89.20
2017-09-16T21:03:02.363Z,89.50
2017-09-16T21:05:28.996Z,89.20
2017-09-16T21:07:56.366Z,88.30
2017-09-16T21:10:22.911Z,88.40
2017-09-16T21:12:49.964Z,88.50
2017-09-16T21:15:17.318Z,88.50
2017-09-16T21:17:43.861Z,88.30
2017-09-16T21:20:11.119Z,88.20
2017-09-16T21:22:37.656Z,88.10
2017-09-16T21:25:04.200Z,88.40
2017-09-16T21:27:31.662Z,88.10
2017-09-16T21:29:58.920Z,88.50
2017-09-16T21:32:26.590Z,88.70
2017-09-16T21:34:53.129Z,88.50
2017-09-16T21:37:19.651Z,87.90
2017-09-16T21:39:46.313Z,87.60
2017-09-16T21:42:13.569Z,88.50
2017-09-16T21:44:41.334Z,89.10
2017-09-16T21:47:08.494Z,89.10
2017-09-16T21:49:35.450Z,90.20
2017-09-16T21:52:01.984Z,90.70
2017-09-16T21:54:29.447Z,89.90
2017-09-16T21:56:55.972Z,91.40
2017-09-16T21:59:23.451Z,90.50
2017-09-16T22:01:50.088Z,89.60
2017-09-16T22:04:16.737Z,89.80
2017-09-16T22:06:43.380Z,89.30
2017-09-16T22:09:10.844Z,89.80
2017-09-16T22:11:38.291Z,89.50
2017-09-16T22:14:04.851Z,89.70
2017-09-16T22:16:32.820Z,89.70
2017-09-16T22:18:59.975Z,89.20
2017-09-16T22:21:26.516Z,89.20
2017-09-16T22:23:53.773Z,89.40
2017-09-16T22:26:21.236Z,89.10
2017-09-16T22:28:47.780Z,89.10
2017-09-16T22:31:15.356Z,89.60
2017-09-16T22:33:41.883Z,89.30
2017-09-16T22:36:09.244Z,88.90
2017-09-16T22:38:35.988Z,89.20
2017-09-16T22:41:02.531Z,90.00
2017-09-16T22:43:29.564Z,90.30
2017-09-16T22:45:56.226Z,90.70
2017-09-16T22:48:24.097Z,91.20
2017-09-16T22:50:51.763Z,90.80
2017-09-16T22:53:19.636Z,90.00
2017-09-16T22:55:46.789Z,89.60
2017-09-16T22:58:14.051Z,89.30
2017-09-16T23:00:40.572Z,89.30
2017-09-16T23:03:07.112Z,89.50
2017-09-16T23:05:33.670Z,89.20
2017-09-16T23:08:01.659Z,88.90
2017-09-16T23:10:30.184Z,88.80
2017-09-16T23:12:58.412Z,88.90
2017-09-16T23:15:26.867Z,88.90
2017-09-16T23:17:53.420Z,88.90
2017-09-16T23:20:20.851Z,88.40
2017-09-16T23:22:48.360Z,90.00
2017-09-16T23:25:14.907Z,90.30
2017-09-16T23:27:42.568Z,89.60
2017-09-16T23:30:09.316Z,90.20
2017-09-16T23:32:35.944Z,89.60
2017-09-16T23:35:02.500Z,89.40
2017-09-16T23:37:29.041Z,88.80
2017-09-16T23:39:56.099Z,89.30
2017-09-16T23:42:24.204Z,89.40
2017-09-16T23:44:51.837Z,88.80
2017-09-16T23:47:20.220Z,88.90
2017-09-16T23:49:47.376Z,88.80
2017-09-16T23:52:13.910Z,89.10
2017-09-16T23:54:42.104Z,88.90
2017-09-16T23:57:08.635Z,88.90
2017-09-16T23:59:35.174Z,89.10
